Time;durP1;ratioP1;P1;durP2;ratioP2;P2;SDS_P1;SDS_P2;PMS_P1;PMS_P2;Temp;Humidity;BMP_temperature;BMP_pressure;BME280_temperature;BME280_humidity;BME280_pressure;Samples;Min_cycle;Max_cycle;Signal;HPM_P1;HPM_P2
2024/03/02 00:00:34;;;;;;;2.90;2.65;;;15.20;69.60;;;;;;4206259;27;20054;-46
2024/03/02 00:03:17;;;;;;;3.33;3.03;;;15.20;69.60;;;;;;4222879;27;20384;-47
2024/03/02 00:05:58;;;;;;;2.60;2.40;;;15.20;69.60;;;;;;4216890;27;20046;-45
2024/03/02 00:08:39;;;;;;;3.17;2.88;;;15.20;69.70;;;;;;4211248;27;20066;-53
2024/03/02 00:11:21;;;;;;;2.55;2.35;;;15.10;69.90;;;;;;4215057;27;20180;-50
2024/03/02 00:14:02;;;;;;;2.47;2.38;;;15.10;69.80;;;;;;4231125;27;20050;-47
2024/03/02 00:16:43;;;;;;;2.83;2.28;;;15.10;69.80;;;;;;4220458;27;20054;-42
2024/03/02 00:19:25;;;;;;;3.60;3.00;;;15.10;70.10;;;;;;4205650;28;20050;-43
2024/03/02 00:22:08;;;;;;;4.55;3.35;;;15.10;70.10;;;;;;4212830;27;20050;-45
2024/03/02 00:24:49;;;;;;;4.18;3.10;;;15.10;70.00;;;;;;4231565;27;20043;-53
2024/03/02 00:27:30;;;;;;;3.00;2.80;;;15.10;69.70;;;;;;4221937;27;20514;-43
2024/03/02 00:30:51;;;;;;;3.78;3.47;;;15.10;69.60;;;;;;4188763;28;20060;-50
2024/03/02 00:33:35;;;;;;;4.10;3.70;;;15.10;69.10;;;;;;4187589;28;20168;-46
2024/03/02 00:36:24;;;;;;;3.95;3.55;;;15.00;69.60;;;;;;4191899;28;20060;-43
2024/03/02 00:39:07;;;;;;;3.53;3.22;;;15.00;68.70;;;;;;4216370;28;20052;-46
2024/03/02 00:41:49;;;;;;;3.42;3.13;;;15.00;68.30;;;;;;4222688;27;20077;-45
2024/03/02 00:44:35;;;;;;;4.55;3.97;;;15.00;68.10;;;;;;4204486;28;20464;-50
2024/03/02 00:47:16;;;;;;;4.28;3.88;;;15.00;68.60;;;;;;4204294;27;20144;-51
2024/03/02 00:49:57;;;;;;;4.15;3.72;;;14.90;68.80;;;;;;4218919;27;20050;-43
2024/03/02 00:52:41;;;;;;;3.75;3.13;;;14.90;69.10;;;;;;4211415;28;20043;-46
2024/03/02 00:55:22;;;;;;;5.75;3.65;;;14.90;69.00;;;;;;4211149;27;20457;-45
2024/03/02 00:58:03;;;;;;;;;;;14.90;69.50;;;;;;4218190;28;20177;-50
2024/03/02 01:00:44;;;;;;;4.25;3.25;;;14.90;69.80;;;;;;4204750;28;19955;-44
2024/03/02 01:03:25;;;;;;;4.25;3.85;;;14.90;70.50;;;;;;4207410;28;20153;-46
2024/03/02 01:06:07;;;;;;;5.75;4.30;;;14.90;70.60;;;;;;4217265;27;20047;-50
2024/03/02 01:08:51;;;;;;;7.57;4.90;;;14.90;70.30;;;;;;4219623;27;20387;-44
2024/03/02 01:11:33;;;;;;;6.03;4.30;;;14.80;70.20;;;;;;4209442;27;20054;-44
2024/03/02 01:14:14;;;;;;;4.85;4.13;;;14.80;70.20;;;;;;4222923;27;20066;-49
2024/03/02 01:16:55;;;;;;;4.60;4.20;;;14.80;69.80;;;;;;4219401;27;20042;-46
2024/03/02 01:19:36;;;;;;;4.10;3.70;;;14.80;69.70;;;;;;4208825;27;21219;-49
2024/03/02 01:22:19;;;;;;;3.78;3.08;;;14.80;70.10;;;;;;4206881;27;20070;-44
2024/03/02 01:25:01;;;;;;;4.88;2.97;;;14.80;69.70;;;;;;4210178;27;20054;-43
2024/03/02 01:27:43;;;;;;;4.05;3.60;;;14.80;70.40;;;;;;4202080;28;20059;-48
2024/03/02 01:30:26;;;;;;;4.47;3.15;;;14.80;71.10;;;;;;4189188;28;20508;-48
2024/03/02 01:33:07;;;;;;;4.40;3.92;;;14.80;71.30;;;;;;4187480;28;20051;-53
2024/03/02 01:35:48;;;;;;;4.30;3.58;;;14.80;71.30;;;;;;4192010;28;20508;-51
2024/03/02 01:38:29;;;;;;;3.92;3.50;;;14.70;71.20;;;;;;4210822;28;20054;-50
2024/03/02 01:41:11;;;;;;;4.45;4.05;;;14.70;71.30;;;;;;4203566;28;20192;-52
2024/03/02 01:43:53;;;;;;;3.47;3.17;;;14.70;71.30;;;;;;4221998;27;20396;-44
2024/03/02 01:46:34;;;;;;;3.88;3.47;;;14.70;71.00;;;;;;4237595;27;20058;-44
2024/03/02 01:49:15;;;;;;;;;;;14.70;70.90;;;;;;4225687;27;20051;-45
2024/03/02 01:51:57;;;;;;;3.70;3.33;;;14.70;71.00;;;;;;4204333;28;19927;-47
2024/03/02 01:54:38;;;;;;;5.68;3.35;;;14.70;71.60;;;;;;4219434;27;20055;-43
2024/03/02 01:57:20;;;;;;;4.22;3.83;;;14.70;71.30;;;;;;4220747;28;20050;-49
2024/03/02 02:00:03;;;;;;;3.25;2.92;;;14.70;70.60;;;;;;4226308;27;20188;-47
2024/03/02 02:02:52;;;;;;;3.53;3.22;;;14.60;70.60;;;;;;4237516;27;20506;-49
2024/03/02 02:05:34;;;;;;;3.72;3.42;;;14.60;70.50;;;;;;4237882;27;20058;-55
2024/03/02 02:08:16;;;;;;;3.63;3.33;;;14.60;70.40;;;;;;4224197;27;20522;-47
2024/03/02 02:10:57;;;;;;;4.15;3.75;;;14.60;70.20;;;;;;4205940;27;20510;-49
2024/03/02 02:13:40;;;;;;;3.80;3.45;;;14.60;69.90;;;;;;4206633;28;20548;-46
2024/03/02 02:16:21;;;;;;;5.63;4.05;;;14.60;70.00;;;;;;4226368;27;20527;-44
2024/03/02 02:19:02;;;;;;;4.93;4.43;;;14.60;70.30;;;;;;4219242;28;20073;-49
2024/03/02 02:21:45;;;;;;;6.53;5.13;;;14.60;70.40;;;;;;4207239;27;20047;-53
2024/03/02 02:24:26;;;;;;;6.95;5.60;;;14.60;71.00;;;;;;4220480;28;20058;-47
2024/03/02 02:27:07;;;;;;;10.13;7.00;;;14.60;70.20;;;;;;4215732;27;20416;-45
2024/03/02 02:29:48;;;;;;;8.75;7.25;;;14.60;70.20;;;;;;4209412;27;20507;-43
2024/03/02 02:32:29;;;;;;;8.40;7.28;;;14.60;70.60;;;;;;4220501;28;20188;-48
2024/03/02 02:35:10;;;;;;;8.38;7.57;;;14.60;70.20;;;;;;4228097;27;20097;-47
2024/03/02 02:37:54;;;;;;;9.73;7.50;;;14.60;69.80;;;;;;4191437;28;20097;-47
2024/03/02 02:40:35;;;;;;;10.00;7.20;;;14.60;69.80;;;;;;4202169;28;20055;-48
2024/03/02 02:43:16;;;;;;;6.78;6.03;;;14.60;70.30;;;;;;4188551;28;20046;-49
2024/03/02 02:45:58;;;;;;;5.07;4.68;;;14.60;70.50;;;;;;4191645;28;20098;-52
2024/03/02 02:48:39;;;;;;;4.30;3.90;;;14.60;70.30;;;;;;4195456;28;20101;-52
2024/03/02 02:51:20;;;;;;;5.07;4.18;;;14.50;70.60;;;;;;4207020;28;20058;-44
2024/03/02 02:54:02;;;;;;;3.97;3.00;;;14.60;70.60;;;;;;4208159;28;20538;-54
2024/03/02 02:56:43;;;;;;;3.15;2.85;;;14.60;70.30;;;;;;4178645;28;20412;-51
2024/03/02 02:59:24;;;;;;;2.58;2.47;;;14.60;70.60;;;;;;4223923;27;20672;-46
2024/03/02 03:02:06;;;;;;;2.92;2.63;;;14.50;70.60;;;;;;4240143;27;20058;-50
2024/03/02 03:04:46;;;;;;;;;;;14.60;71.10;;;;;;4230607;27;20549;-52
2024/03/02 03:07:28;;;;;;;2.80;2.50;;;14.70;71.60;;;;;;4208326;28;20072;-48
2024/03/02 03:10:11;;;;;;;2.60;2.40;;;14.70;72.20;;;;;;4221566;27;20404;-52
2024/03/02 03:12:52;;;;;;;2.30;2.20;;;14.70;72.00;;;;;;4203584;28;20117;-43
2024/03/02 03:15:33;;;;;;;2.20;2.03;;;14.80;71.80;;;;;;4219728;27;20140;-44
2024/03/02 03:18:14;;;;;;;2.33;2.13;;;14.80;71.60;;;;;;4232132;27;20050;-46
2024/03/02 03:20:56;;;;;;;2.42;2.28;;;14.80;71.90;;;;;;4230475;27;20606;-46
2024/03/02 03:23:37;;;;;;;2.15;2.05;;;14.90;72.20;;;;;;4240907;27;20054;-43
2024/03/02 03:26:19;;;;;;;3.05;2.58;;;15.00;72.10;;;;;;4197114;28;20051;-50
2024/03/02 03:29:02;;;;;;;2.20;2.10;;;15.00;72.10;;;;;;4205496;28;20059;-48
2024/03/02 03:31:43;;;;;;;3.00;2.15;;;15.10;72.00;;;;;;4205040;28;20446;-46
2024/03/02 03:34:24;;;;;;;2.20;2.10;;;15.10;71.90;;;;;;4190597;28;20052;-44
2024/03/02 03:37:05;;;;;;;1.98;1.77;;;15.10;72.00;;;;;;4222525;27;20115;-50
2024/03/02 03:39:46;;;;;;;1.90;1.80;;;15.10;71.90;;;;;;4222074;27;20050;-47
2024/03/02 03:42:28;;;;;;;3.17;1.87;;;15.10;72.00;;;;;;4191181;28;20051;-46
2024/03/02 03:45:10;;;;;;;2.72;2.25;;;15.20;72.10;;;;;;4200702;28;20297;-46
2024/03/02 03:47:51;;;;;;;3.50;1.80;;;15.20;72.20;;;;;;4222526;27;20527;-48
2024/03/02 03:50:32;;;;;;;2.13;1.65;;;15.20;72.20;;;;;;4190658;28;20105;-48
2024/03/02 03:53:14;;;;;;;2.90;1.98;;;15.30;72.10;;;;;;4198566;28;20101;-45
2024/03/02 03:55:55;;;;;;;2.03;1.83;;;15.30;72.20;;;;;;4221496;28;20104;-51
2024/03/02 03:58:37;;;;;;;1.85;1.73;;;15.30;72.20;;;;;;4206964;28;20043;-49
2024/03/02 04:01:18;;;;;;;2.17;1.60;;;15.30;72.00;;;;;;4205562;28;20256;-54
2024/03/02 04:04:01;;;;;;;1.70;1.60;;;15.40;71.90;;;;;;4222710;27;20096;-47
2024/03/02 04:06:42;;;;;;;1.90;1.73;;;15.40;71.80;;;;;;4202761;28;20396;-45
2024/03/02 04:09:24;;;;;;;2.60;1.75;;;15.40;71.90;;;;;;4239002;27;20171;-52
2024/03/02 04:12:05;;;;;;;2.10;1.92;;;15.40;72.00;;;;;;4240030;27;20072;-54
2024/03/02 04:14:48;;;;;;;2.40;1.75;;;15.40;71.90;;;;;;4232492;27;20050;-49
2024/03/02 04:17:29;;;;;;;2.40;1.70;;;15.40;71.80;;;;;;4217451;27;20584;-48
2024/03/02 04:20:12;;;;;;;1.75;1.65;;;15.40;71.60;;;;;;4204321;28;20173;-49
2024/03/02 04:22:53;;;;;;;2.47;1.83;;;15.50;71.80;;;;;;4192979;28;20134;-51
2024/03/02 04:25:34;;;;;;;3.20;2.10;;;15.50;71.90;;;;;;4221946;27;20565;-52
2024/03/02 04:28:15;;;;;;;2.67;1.80;;;15.50;71.90;;;;;;4208005;27;20545;-47
2024/03/02 04:30:58;;;;;;;1.88;1.75;;;15.50;72.00;;;;;;4206777;28;20097;-44
2024/03/02 04:33:39;;;;;;;2.10;1.70;;;15.50;72.00;;;;;;4205315;28;20067;-44
2024/03/02 04:36:20;;;;;;;3.47;1.88;;;15.60;71.90;;;;;;4203853;28;20055;-51
2024/03/02 04:39:01;;;;;;;1.70;1.60;;;15.60;71.90;;;;;;4220526;28;20058;-53
2024/03/02 04:41:42;;;;;;;3.63;1.92;;;15.60;71.90;;;;;;4221543;27;20088;-51
2024/03/02 04:44:23;;;;;;;1.80;1.70;;;15.70;72.00;;;;;;4202741;28;20047;-53
2024/03/02 04:47:06;;;;;;;2.10;1.90;;;15.70;72.00;;;;;;4223726;27;20408;-45
2024/03/02 04:49:47;;;;;;;2.65;1.80;;;15.60;71.90;;;;;;4189193;28;20059;-52
2024/03/02 04:52:28;;;;;;;1.80;1.70;;;15.60;72.10;;;;;;4190669;28;20061;-44
2024/03/02 04:55:29;;;;;;;2.58;1.88;;;15.60;72.10;;;;;;4194226;28;20115;-44
2024/03/02 04:58:10;;;;;;;2.13;1.85;;;15.50;72.00;;;;;;4237481;27;20061;-47
2024/03/02 05:00:51;;;;;;;2.00;1.80;;;15.50;72.40;;;;;;4210303;27;20043;-45
2024/03/02 05:03:34;;;;;;;1.80;1.70;;;15.50;72.50;;;;;;4190477;28;20055;-47
2024/03/02 05:06:15;;;;;;;2.58;2.00;;;15.50;73.10;;;;;;4208947;27;20059;-50
2024/03/02 05:08:56;;;;;;;1.93;1.70;;;15.60;72.10;;;;;;4216371;28;20047;-48
2024/03/02 05:14:35;;;;;;;2.13;1.85;;;15.60;72.10;;;;;;4203553;28;20122;-44
2024/03/02 05:17:16;;;;;;;2.20;2.00;;;15.60;72.10;;;;;;4221306;27;20184;-49
2024/03/02 05:19:59;;;;;;;1.67;1.58;;;15.70;72.10;;;;;;4220272;28;20118;-44
2024/03/02 05:22:40;;;;;;;2.20;2.10;;;15.70;71.90;;;;;;4214180;27;20084;-50
2024/03/02 05:25:21;;;;;;;2.35;2.15;;;15.70;72.00;;;;;;4212221;28;20054;-47
2024/03/02 05:28:02;;;;;;;3.08;2.58;;;15.70;71.90;;;;;;4238221;27;20069;-50
2024/03/02 05:30:44;;;;;;;2.67;1.90;;;15.70;71.90;;;;;;4238241;27;20062;-49
2024/03/02 05:33:25;;;;;;;1.83;1.73;;;15.70;71.70;;;;;;4234267;27;20149;-50
2024/03/02 05:36:08;;;;;;;3.85;2.03;;;15.70;71.80;;;;;;4221043;27;20046;-49
2024/03/02 05:38:49;;;;;;;2.35;1.95;;;15.70;71.70;;;;;;4211103;28;20585;-43
2024/03/02 05:41:32;;;;;;;2.85;1.98;;;15.70;72.60;;;;;;4212251;27;20533;-46
2024/03/02 05:44:15;;;;;;;2.78;2.08;;;15.80;72.70;;;;;;4197625;28;20130;-53
2024/03/02 05:46:55;;;;;;;2.38;2.17;;;15.80;71.70;;;;;;4190383;28;20102;-48
2024/03/02 05:49:37;;;;;;;2.28;2.17;;;15.80;71.70;;;;;;4190841;28;20047;-46
2024/03/02 05:52:20;;;;;;;1.88;1.70;;;15.80;71.80;;;;;;4204313;28;20055;-53
2024/03/02 05:55:01;;;;;;;1.88;1.77;;;15.70;71.80;;;;;;4202979;28;20054;-43
2024/03/02 05:57:58;;;;;;;1.92;1.83;;;15.70;71.90;;;;;;4211906;27;20459;-49
2024/03/02 06:00:39;;;;;;;2.20;2.00;;;15.70;72.00;;;;;;4221309;27;20058;-43
2024/03/02 06:03:20;;;;;;;1.95;1.85;;;15.60;72.50;;;;;;4197079;28;20074;-48
2024/03/02 06:06:01;;;;;;;1.92;1.83;;;15.60;72.70;;;;;;4189629;28;20055;-45
2024/03/02 06:08:44;;;;;;;2.28;2.05;;;15.70;72.90;;;;;;4190762;28;20093;-48
2024/03/02 06:11:25;;;;;;;2.10;1.85;;;15.70;72.80;;;;;;4187900;28;20055;-43
2024/03/02 06:14:06;;;;;;;2.53;2.20;;;15.70;72.50;;;;;;4203410;28;20606;-44
2024/03/02 06:16:47;;;;;;;1.90;1.80;;;15.70;72.70;;;;;;4220086;28;20054;-46
2024/03/02 06:19:28;;;;;;;2.28;2.08;;;15.70;72.80;;;;;;4221477;28;20197;-50
2024/03/02 06:22:09;;;;;;;2.08;1.88;;;15.80;73.70;;;;;;4221162;28;20051;-53
2024/03/02 06:24:51;;;;;;;;;;;15.80;72.60;;;;;;4221302;28;20070;-44
2024/03/02 06:27:32;;;;;;;1.83;1.73;;;15.80;72.70;;;;;;4237434;27;19926;-48
2024/03/02 06:30:14;;;;;;;2.30;2.10;;;15.80;72.90;;;;;;4237534;27;20119;-49
2024/03/02 06:32:55;;;;;;;2.17;2.08;;;15.80;72.80;;;;;;4230201;27;20062;-44
2024/03/02 06:35:36;;;;;;;2.40;2.20;;;15.80;72.80;;;;;;4201978;28;20059;-52
2024/03/02 06:38:16;;;;;;;3.30;1.95;;;15.80;72.80;;;;;;4204217;28;20089;-51
2024/03/02 06:40:59;;;;;;;2.70;2.08;;;15.80;72.80;;;;;;4196454;28;20408;-51
2024/03/02 06:43:40;;;;;;;2.25;1.70;;;15.80;72.70;;;;;;4217391;28;20070;-44
2024/03/02 06:46:21;;;;;;;2.00;1.90;;;15.90;72.70;;;;;;4188297;28;20052;-47
2024/03/02 06:49:03;;;;;;;2.05;1.95;;;15.90;72.50;;;;;;4187607;28;20062;-49
2024/03/02 06:51:45;;;;;;;2.25;2.05;;;15.90;72.40;;;;;;4211249;28;20507;-43
2024/03/02 06:54:25;;;;;;;3.20;1.90;;;15.90;72.10;;;;;;4186239;28;20501;-44
2024/03/02 06:57:08;;;;;;;3.03;2.15;;;15.90;71.70;;;;;;4187114;28;20059;-46
2024/03/02 06:59:51;;;;;;;2.30;2.10;;;15.90;71.60;;;;;;4214064;28;20104;-49
2024/03/02 07:02:32;;;;;;;2.00;1.88;;;15.80;71.50;;;;;;4202947;28;20058;-45
2024/03/02 07:05:14;;;;;;;1.83;1.73;;;15.80;71.70;;;;;;4186174;28;20067;-51
2024/03/02 07:07:55;;;;;;;2.58;2.30;;;15.70;71.80;;;;;;4187927;28;20496;-51
2024/03/02 07:10:36;;;;;;;6.88;2.25;;;15.70;71.90;;;;;;4209317;27;20051;-48
2024/03/02 07:13:20;;;;;;;3.80;1.83;;;15.70;72.30;;;;;;4201405;28;20121;-49
2024/03/02 07:16:27;;;;;;;2.30;2.05;;;15.70;72.30;;;;;;4187385;28;20051;-46
2024/03/02 07:19:08;;;;;;;3.45;1.75;;;15.70;72.40;;;;;;4186524;28;20059;-50
2024/03/02 07:21:49;;;;;;;2.20;2.00;;;15.70;72.30;;;;;;4193948;28;20560;-46
2024/03/02 07:24:30;;;;;;;2.58;2.13;;;15.70;72.20;;;;;;4196030;28;20063;-47
2024/03/02 07:27:12;;;;;;;3.17;2.08;;;15.70;72.10;;;;;;4232811;27;20065;-43
2024/03/02 07:29:54;;;;;;;4.55;1.98;;;15.80;72.30;;;;;;4238244;27;20275;-44
2024/03/02 07:32:35;;;;;;;3.38;2.00;;;15.80;72.10;;;;;;4240124;27;20062;-44
2024/03/02 07:35:16;;;;;;;2.60;2.30;;;15.80;72.10;;;;;;4213657;27;20047;-49
2024/03/02 07:37:57;;;;;;;1.80;1.52;;;15.80;71.90;;;;;;4206247;28;20104;-43
2024/03/02 07:40:38;;;;;;;2.10;2.00;;;15.80;71.80;;;;;;4217308;28;20062;-54
2024/03/02 07:43:21;;;;;;;2.53;2.10;;;15.80;71.80;;;;;;4199856;28;20050;-47
2024/03/02 07:46:04;;;;;;;2.25;2.05;;;15.80;72.30;;;;;;4197333;28;20458;-53
2024/03/02 07:48:45;;;;;;;2.17;1.90;;;15.80;72.20;;;;;;4206183;28;20059;-45
2024/03/02 07:51:26;;;;;;;2.05;1.92;;;15.90;72.40;;;;;;4223212;27;20108;-53
2024/03/02 07:54:07;;;;;;;1.90;1.80;;;15.80;72.10;;;;;;4197813;28;20093;-52
2024/03/02 07:56:48;;;;;;;2.40;1.75;;;15.90;71.90;;;;;;4196628;28;20051;-52
2024/03/02 07:59:29;;;;;;;2.22;2.08;;;15.90;72.50;;;;;;4195738;28;20405;-44
2024/03/02 08:02:12;;;;;;;3.00;1.85;;;15.90;71.40;;;;;;4191461;28;20174;-52
2024/03/02 08:04:53;;;;;;;1.95;1.80;;;16.00;71.30;;;;;;4218831;28;20120;-46
2024/03/02 08:07:35;;;;;;;2.15;1.95;;;16.00;70.60;;;;;;4218026;27;20130;-49
2024/03/02 08:10:16;;;;;;;;;;;16.00;70.00;;;;;;4223228;27;20051;-51
2024/03/02 08:12:57;;;;;;;1.63;1.52;;;16.00;69.60;;;;;;4222545;27;20373;-50
2024/03/02 08:15:38;;;;;;;2.05;1.88;;;16.00;69.40;;;;;;4221429;27;20503;-46
2024/03/02 08:18:21;;;;;;;3.30;1.90;;;16.00;69.30;;;;;;4216602;27;20051;-54
2024/03/02 08:21:02;;;;;;;1.60;1.45;;;16.00;69.00;;;;;;4225333;27;20046;-52
2024/03/02 08:23:43;;;;;;;2.38;1.80;;;16.00;68.90;;;;;;4223513;27;20042;-54
2024/03/02 08:26:25;;;;;;;2.95;1.40;;;16.00;68.90;;;;;;4203870;28;20504;-47
2024/03/02 08:29:06;;;;;;;1.52;1.33;;;16.00;68.90;;;;;;4206000;28;20089;-53
2024/03/02 08:31:47;;;;;;;1.70;1.60;;;16.00;69.00;;;;;;4205409;28;20047;-45
2024/03/02 08:34:29;;;;;;;3.72;1.48;;;16.00;69.00;;;;;;4220463;27;20062;-45
2024/03/02 08:37:10;;;;;;;2.05;1.10;;;16.00;68.80;;;;;;4206006;28;20392;-52
2024/03/02 08:39:51;;;;;;;1.38;0.95;;;15.90;68.90;;;;;;4205588;27;20496;-50
2024/03/02 08:42:32;;;;;;;1.10;1.00;;;15.90;68.90;;;;;;4239207;27;20054;-52
2024/03/02 08:45:13;;;;;;;2.83;1.20;;;15.80;68.60;;;;;;4239128;27;20050;-47
2024/03/02 08:47:54;;;;;;;1.83;1.20;;;15.80;68.50;;;;;;4239169;27;20066;-45
2024/03/02 08:50:37;;;;;;;0.70;0.70;;;15.80;68.50;;;;;;4239395;27;20092;-51
2024/03/02 08:53:19;;;;;;;1.77;0.90;;;15.70;68.30;;;;;;4237908;27;20091;-49
2024/03/02 08:56:01;;;;;;;1.58;0.80;;;15.70;68.20;;;;;;4238545;27;20053;-44
2024/03/02 08:58:44;;;;;;;0.68;0.68;;;15.70;68.20;;;;;;4213810;27;20176;-50
2024/03/02 09:01:25;;;;;;;1.20;0.82;;;15.70;68.10;;;;;;4221927;27;20054;-50
2024/03/02 09:04:06;;;;;;;1.20;1.10;;;15.60;67.80;;;;;;4198211;28;20511;-45
2024/03/02 09:06:48;;;;;;;1.45;1.35;;;15.60;67.60;;;;;;4204889;27;20180;-53
2024/03/02 09:09:31;;;;;;;1.40;1.30;;;15.70;67.50;;;;;;4189054;28;20059;-52
2024/03/02 09:12:12;;;;;;;1.50;1.40;;;15.60;67.50;;;;;;4199598;28;20074;-55
2024/03/02 09:14:54;;;;;;;3.33;1.20;;;15.60;67.70;;;;;;4209069;27;20085;-51
2024/03/02 09:17:35;;;;;;;0.90;0.90;;;15.60;67.90;;;;;;4207677;28;20059;-49
2024/03/02 09:20:16;;;;;;;1.10;1.00;;;15.70;67.80;;;;;;4206657;27;20092;-49
2024/03/02 09:22:58;;;;;;;0.90;0.90;;;15.80;67.50;;;;;;4216404;27;20184;-48
2024/03/02 09:25:39;;;;;;;1.27;0.95;;;15.80;67.00;;;;;;4206300;28;20496;-45
2024/03/02 09:28:21;;;;;;;0.93;0.77;;;15.80;66.80;;;;;;4212941;28;20065;-53
2024/03/02 09:31:02;;;;;;;1.40;1.00;;;15.80;66.90;;;;;;4189421;27;20556;-55
2024/03/02 09:33:43;;;;;;;0.90;0.90;;;15.90;67.70;;;;;;4208764;28;20058;-53
2024/03/02 09:36:24;;;;;;;4.70;0.80;;;15.90;69.30;;;;;;4198470;28;20496;-48
2024/03/02 09:39:09;;;;;;;;;;;16.10;69.40;;;;;;4205706;27;20194;-55
2024/03/02 09:41:52;;;;;;;3.13;0.82;;;16.20;68.80;;;;;;4200421;27;19930;-55
2024/03/02 09:44:34;;;;;;;3.60;1.02;;;16.40;67.80;;;;;;4196157;28;20189;-49
2024/03/02 09:47:15;;;;;;;0.65;0.60;;;16.50;67.20;;;;;;4210061;27;20178;-57
2024/03/02 09:49:57;;;;;;;1.33;0.70;;;16.60;67.70;;;;;;4186605;28;20186;-57
2024/03/02 09:52:39;;;;;;;3.10;1.45;;;16.70;67.10;;;;;;4193865;28;20055;-47
2024/03/02 09:55:22;;;;;;;2.70;1.27;;;16.60;66.70;;;;;;4214854;28;20055;-57
2024/03/02 09:58:07;;;;;;;0.82;0.82;;;16.60;66.30;;;;;;4208289;28;20055;-57
2024/03/02 10:00:49;;;;;;;0.82;0.82;;;16.60;66.30;;;;;;4204356;27;20070;-47
2024/03/02 10:03:34;;;;;;;1.58;1.00;;;16.60;66.40;;;;;;4205081;28;20463;-50
2024/03/02 10:06:20;;;;;;;1.30;0.80;;;16.50;66.40;;;;;;4187391;28;20051;-45
2024/03/02 10:09:01;;;;;;;0.65;0.65;;;16.40;66.60;;;;;;4193462;28;20055;-43
2024/03/02 10:11:44;;;;;;;2.53;1.02;;;16.40;66.90;;;;;;4205217;28;20059;-57
2024/03/02 10:14:24;;;;;;;1.10;0.95;;;16.40;67.10;;;;;;4208855;28;20078;-49
2024/03/02 10:17:07;;;;;;;1.00;1.00;;;16.30;67.30;;;;;;4203727;28;20054;-51
2024/03/02 10:19:48;;;;;;;1.35;1.15;;;16.20;66.60;;;;;;4211473;28;20063;-49
2024/03/02 10:22:29;;;;;;;2.85;1.33;;;16.20;66.90;;;;;;4186702;28;20063;-47
2024/03/02 10:25:30;;;;;;;2.13;1.15;;;16.20;67.50;;;;;;4187454;28;20079;-48
2024/03/02 10:28:19;;;;;;;3.10;1.38;;;16.10;67.50;;;;;;4212130;28;20054;-48
2024/03/02 10:30:59;;;;;;;1.25;1.15;;;16.10;66.90;;;;;;4196301;28;20108;-49
2024/03/02 10:33:41;;;;;;;2.15;1.80;;;16.00;67.00;;;;;;4207318;28;20051;-58
2024/03/02 10:36:22;;;;;;;1.45;1.35;;;16.00;67.20;;;;;;4188817;28;20059;-58
2024/03/02 10:39:04;;;;;;;1.73;1.30;;;16.00;67.30;;;;;;4213147;28;20499;-45
2024/03/02 10:41:46;;;;;;;;;;;15.90;67.40;;;;;;4206316;28;20067;-58
2024/03/02 10:44:29;;;;;;;0.73;0.60;;;15.90;67.80;;;;;;4184874;28;19935;-58
2024/03/02 10:47:14;;;;;;;3.30;1.08;;;15.90;67.40;;;;;;4194963;28;20097;-57
2024/03/02 10:50:00;;;;;;;1.85;0.52;;;15.80;66.50;;;;;;4215597;28;20182;-55
2024/03/02 10:52:42;;;;;;;0.85;0.65;;;15.80;67.00;;;;;;4204697;28;20058;-55
2024/03/02 10:55:23;;;;;;;0.85;0.85;;;15.80;66.80;;;;;;4191012;28;20054;-58
2024/03/02 10:58:06;;;;;;;1.08;0.82;;;15.80;66.20;;;;;;4189779;28;20055;-57
2024/03/02 11:00:50;;;;;;;1.85;0.88;;;15.80;66.00;;;;;;4196900;28;20384;-57
2024/03/02 11:03:34;;;;;;;1.23;1.05;;;15.80;66.90;;;;;;4183769;28;20091;-54
2024/03/02 11:06:16;;;;;;;1.85;1.20;;;15.80;66.50;;;;;;4192238;28;20059;-45
2024/03/02 11:09:03;;;;;;;0.70;0.70;;;15.70;66.80;;;;;;4216593;27;20197;-45
2024/03/02 11:11:44;;;;;;;0.90;0.90;;;15.70;66.80;;;;;;4198703;27;20052;-45
2024/03/02 11:14:26;;;;;;;2.30;0.70;;;15.70;66.90;;;;;;4203094;27;20056;-55
2024/03/02 11:17:09;;;;;;;1.30;0.80;;;15.70;67.10;;;;;;4203393;28;20565;-51
2024/03/02 11:19:51;;;;;;;20.83;0.80;;;15.70;67.20;;;;;;4196958;28;20491;-57
2024/03/02 11:22:32;;;;;;;3.38;0.90;;;15.70;66.30;;;;;;4211056;28;20169;-57
2024/03/02 11:25:25;;;;;;;1.42;0.77;;;15.70;65.80;;;;;;4204601;28;20055;-50
2024/03/02 11:28:09;;;;;;;1.55;1.00;;;15.70;65.20;;;;;;4191966;28;20059;-47
2024/03/02 11:30:52;;;;;;;2.60;0.88;;;15.80;65.70;;;;;;4212457;27;20126;-49
2024/03/02 11:33:34;;;;;;;0.98;0.80;;;15.70;65.80;;;;;;4199761;28;20059;-46
2024/03/02 11:36:17;;;;;;;1.85;1.38;;;15.70;65.70;;;;;;4204973;28;20082;-57
2024/03/02 11:38:58;;;;;;;1.70;1.60;;;15.70;65.50;;;;;;4198887;28;20101;-57
2024/03/02 11:41:39;;;;;;;1.77;1.67;;;15.70;65.70;;;;;;4214941;28;20155;-55
2024/03/02 11:44:21;;;;;;;1.70;1.60;;;15.80;65.90;;;;;;4189428;28;20047;-57
2024/03/02 11:47:04;;;;;;;;;;;15.70;66.10;;;;;;4187626;28;20063;-44
2024/03/02 11:49:50;;;;;;;2.35;1.90;;;15.70;66.10;;;;;;4197517;28;20272;-57
2024/03/02 11:52:31;;;;;;;3.80;2.30;;;15.70;66.30;;;;;;4206393;28;20047;-44
2024/03/02 11:55:13;;;;;;;2.35;2.08;;;15.70;66.00;;;;;;4206157;27;20062;-48
2024/03/02 11:57:54;;;;;;;2.28;2.08;;;15.70;66.80;;;;;;4213275;27;20063;-49
2024/03/02 12:00:36;;;;;;;1.98;1.70;;;15.70;66.10;;;;;;4202530;28;20408;-47
2024/03/02 12:03:17;;;;;;;2.30;2.10;;;15.70;66.50;;;;;;4206956;27;20055;-47
2024/03/02 12:06:03;;;;;;;2.78;1.92;;;15.70;66.60;;;;;;4203985;28;20075;-57
2024/03/02 12:08:46;;;;;;;1.75;1.63;;;15.70;66.50;;;;;;4198947;28;20038;-57
2024/03/02 12:11:27;;;;;;;2.95;1.92;;;15.70;66.40;;;;;;4196012;28;20063;-48
2024/03/02 12:14:13;;;;;;;6.80;2.00;;;15.70;65.70;;;;;;4203809;27;20069;-45
2024/03/02 12:16:58;;;;;;;2.00;1.90;;;15.70;65.10;;;;;;4204303;28;20507;-47
2024/03/02 12:19:39;;;;;;;3.47;1.80;;;15.70;64.60;;;;;;4196601;28;20063;-57
2024/03/02 12:22:22;;;;;;;2.10;2.00;;;15.70;64.50;;;;;;4203751;27;20057;-48
2024/03/02 12:25:04;;;;;;;3.20;2.45;;;15.70;64.90;;;;;;4208115;27;20405;-46
2024/03/02 12:27:46;;;;;;;1.92;1.80;;;15.70;64.80;;;;;;4202638;28;20063;-58
2024/03/02 12:30:30;;;;;;;2.35;2.15;;;15.70;64.80;;;;;;4200949;28;20237;-50
2024/03/02 12:33:13;;;;;;;4.15;2.70;;;15.70;65.00;;;;;;4204434;28;20082;-48
2024/03/02 12:35:56;;;;;;;2.60;2.50;;;15.70;65.20;;;;;;4207320;27;20507;-47
2024/03/02 12:38:44;;;;;;;4.35;2.63;;;15.70;65.30;;;;;;4216215;28;20601;-58
2024/03/02 12:41:25;;;;;;;3.55;2.45;;;15.70;65.40;;;;;;4206939;28;20045;-57
2024/03/02 12:44:07;;;;;;;2.53;2.33;;;15.70;65.50;;;;;;4213656;27;20121;-46
2024/03/02 12:46:48;;;;;;;4.15;2.35;;;15.70;65.50;;;;;;4204985;27;20063;-55
2024/03/02 12:49:30;;;;;;;2.35;2.15;;;15.70;65.80;;;;;;4208457;28;20054;-57
2024/03/02 12:52:13;;;;;;;2.50;2.30;;;15.70;66.40;;;;;;4209472;27;20500;-48
2024/03/02 12:54:58;;;;;;;2.97;2.28;;;15.80;66.60;;;;;;4196747;27;20508;-57
2024/03/02 12:57:41;;;;;;;2.30;2.10;;;15.80;66.20;;;;;;4193528;28;20100;-50
2024/03/02 13:00:23;;;;;;;4.65;2.63;;;15.80;65.70;;;;;;4195636;28;20056;-58
2024/03/02 13:03:05;;;;;;;2.95;2.67;;;15.80;65.20;;;;;;4201691;28;20063;-58
2024/03/02 13:05:50;;;;;;;2.95;2.70;;;15.80;65.00;;;;;;4207156;28;20062;-58
2024/03/02 13:08:32;;;;;;;5.57;3.67;;;15.80;65.00;;;;;;4190979;28;20112;-49
2024/03/02 13:11:14;;;;;;;2.70;2.50;;;15.80;65.00;;;;;;4193186;27;20058;-58
2024/03/02 13:13:55;;;;;;;2.47;2.30;;;15.80;64.60;;;;;;4208999;27;20054;-47
2024/03/02 13:16:40;;;;;;;2.50;2.35;;;15.80;64.60;;;;;;4203422;27;20054;-58
2024/03/02 13:19:30;;;;;;;2.22;2.13;;;15.80;64.30;;;;;;4202922;27;20055;-58
2024/03/02 13:22:11;;;;;;;2.42;2.22;;;15.90;65.40;;;;;;4191736;27;20187;-49
2024/03/02 13:24:54;;;;;;;2.25;2.15;;;15.90;64.50;;;;;;4192724;28;21068;-58
2024/03/02 13:27:36;;;;;;;2.50;2.30;;;15.90;64.40;;;;;;4198385;27;20099;-58
2024/03/02 13:30:17;;;;;;;2.42;2.22;;;15.90;64.50;;;;;;4202781;27;20054;-51
2024/03/02 13:32:58;;;;;;;3.55;2.30;;;15.90;64.80;;;;;;4207924;28;20050;-57
2024/03/02 13:35:39;;;;;;;4.13;2.15;;;15.90;65.10;;;;;;4200801;28;20400;-48
2024/03/02 13:38:21;;;;;;;2.60;2.20;;;15.90;65.10;;;;;;4204892;28;20066;-58
2024/03/02 13:41:02;;;;;;;5.05;2.40;;;15.90;64.90;;;;;;4197156;28;20066;-56
2024/03/02 13:43:45;;;;;;;2.53;2.30;;;15.90;65.00;;;;;;4197534;28;21234;-49
2024/03/02 13:46:26;;;;;;;2.67;2.03;;;15.90;64.60;;;;;;4198252;28;20357;-55
2024/03/02 13:49:07;;;;;;;2.50;2.30;;;15.90;64.60;;;;;;4200353;28;20055;-56
2024/03/02 13:51:48;;;;;;;4.75;2.67;;;15.90;64.50;;;;;;4195366;27;20052;-56
2024/03/02 13:54:29;;;;;;;4.13;2.53;;;15.90;64.50;;;;;;4188870;28;20082;-50
2024/03/02 13:57:11;;;;;;;3.30;2.40;;;15.90;64.30;;;;;;4202966;28;20062;-55
2024/03/02 13:59:54;;;;;;;2.95;2.30;;;15.90;64.60;;;;;;4213285;27;20090;-50
2024/03/02 14:02:35;;;;;;;4.38;2.08;;;15.90;64.70;;;;;;4190215;28;20229;-54
2024/03/02 14:05:17;;;;;;;4.38;3.08;;;15.90;64.60;;;;;;4193138;28;20096;-47
2024/03/02 14:07:58;;;;;;;3.35;2.33;;;16.00;64.90;;;;;;4207280;28;20059;-49